createdAt,value
2023-03-07T00:00:06.952Z,4.18
2023-03-07T00:01:31.612Z,3.97
2023-03-07T00:02:54.662Z,3.99
2023-03-07T00:04:18.199Z,4.51
2023-03-07T00:05:40.316Z,4.44
2023-03-07T00:07:02.633Z,4.09
2023-03-07T00:08:25.998Z,4.21
2023-03-07T00:09:49.873Z,4.17
2023-03-07T00:11:13.869Z,4.36
2023-03-07T00:12:39.100Z,4.13
2023-03-07T00:14:01.723Z,4.18
2023-03-07T00:15:24.266Z,4.62
2023-03-07T00:16:52.352Z,4.13
2023-03-07T00:18:14.520Z,4.22
2023-03-07T00:21:01.983Z,4.09
2023-03-07T00:22:23.556Z,4.16
2023-03-07T00:23:45.730Z,3.99
2023-03-07T00:25:09.274Z,3.89
2023-03-07T00:26:31.194Z,4.55
2023-03-07T00:27:54.640Z,4.23
2023-03-07T00:29:17.074Z,6.47
2023-03-07T00:30:41.997Z,6.62
2023-03-07T00:32:05.452Z,5.22
2023-03-07T00:33:29.629Z,4.74
2023-03-07T00:34:51.579Z,4.54
2023-03-07T00:36:18.064Z,4.48
2023-03-07T00:37:39.907Z,4.60
2023-03-07T00:39:02.150Z,9.64
2023-03-07T00:40:24.389Z,7.91
2023-03-07T00:41:46.338Z,5.36
2023-03-07T00:43:08.849Z,5.16
2023-03-07T00:44:31.770Z,4.24
2023-03-07T00:45:54.744Z,4.43
2023-03-07T00:47:17.466Z,4.13
2023-03-07T00:48:39.863Z,5.22
2023-03-07T00:50:02.026Z,5.03
2023-03-07T00:51:24.748Z,4.26
2023-03-07T00:52:47.201Z,4.16
2023-03-07T00:54:09.394Z,4.19
2023-03-07T00:55:33.364Z,4.18
2023-03-07T00:56:55.289Z,4.11
2023-03-07T00:58:19.562Z,4.41
2023-03-07T00:59:42.635Z,3.96
2023-03-07T01:01:08.439Z,4.12
2023-03-07T01:02:32.044Z,4.23
2023-03-07T01:03:54.069Z,4.93
2023-03-07T01:05:17.385Z,4.42
2023-03-07T01:08:04.914Z,4.31
2023-03-07T01:09:27.137Z,4.18
2023-03-07T01:10:49.386Z,3.93
2023-03-07T01:12:11.912Z,4.53
2023-03-07T01:13:35.804Z,4.14
2023-03-07T01:14:58.273Z,4.51
2023-03-07T01:16:23.384Z,4.11
2023-03-07T01:17:45.481Z,4.54
2023-03-07T01:19:09.670Z,4.62
2023-03-07T01:20:34.401Z,4.26
2023-03-07T01:21:56.081Z,4.33
2023-03-07T01:23:18.561Z,4.29
2023-03-07T01:26:04.478Z,4.32
2023-03-07T01:27:26.624Z,4.30
2023-03-07T01:28:52.618Z,4.26
2023-03-07T01:30:17.357Z,4.99
2023-03-07T01:31:39.813Z,4.73
2023-03-07T01:33:02.761Z,4.38
2023-03-07T01:34:25.035Z,4.07
2023-03-07T01:35:47.652Z,4.54
2023-03-07T01:37:10.868Z,4.32
2023-03-07T01:39:54.477Z,4.93
2023-03-07T01:41:16.620Z,4.89
2023-03-07T01:42:38.934Z,5.16
2023-03-07T01:44:02.469Z,4.24
2023-03-07T01:46:58.577Z,4.49
2023-03-07T01:48:22.272Z,4.69
2023-03-07T01:49:44.062Z,4.74
2023-03-07T01:51:06.308Z,4.71
2023-03-07T01:52:32.239Z,4.89
2023-03-07T01:53:54.750Z,6.81
2023-03-07T01:55:18.897Z,9.92
2023-03-07T01:56:41.501Z,11.48
2023-03-07T01:59:22.526Z,9.78
2023-03-07T02:00:45.355Z,9.80
2023-03-07T02:02:09.769Z,9.05
2023-03-07T02:03:38.853Z,14.56
2023-03-07T02:05:21.941Z,10.09
2023-03-07T02:06:45.245Z,12.35
2023-03-07T02:08:07.735Z,12.83
2023-03-07T02:09:29.935Z,7.64
2023-03-07T02:10:51.724Z,9.59
2023-03-07T02:12:13.803Z,10.57
2023-03-07T02:13:36.189Z,9.57
2023-03-07T02:14:58.018Z,6.62
2023-03-07T02:16:19.992Z,8.57
2023-03-07T02:17:42.519Z,10.49
2023-03-07T02:19:04.585Z,9.38
2023-03-07T02:20:39.153Z,9.98
2023-03-07T02:22:11.242Z,9.43
2023-03-07T02:23:47.629Z,9.74
2023-03-07T02:25:13.276Z,6.93
2023-03-07T02:26:47.726Z,7.07
2023-03-07T02:29:25.862Z,6.21
2023-03-07T02:30:58.038Z,6.68
2023-03-07T02:32:20.040Z,6.64
2023-03-07T02:33:41.290Z,6.01
2023-03-07T02:36:32.377Z,5.63
2023-03-07T02:37:57.987Z,5.99
2023-03-07T02:39:19.736Z,5.59
2023-03-07T02:40:41.517Z,5.68
2023-03-07T02:42:06.641Z,5.54
2023-03-07T02:43:28.313Z,5.86
2023-03-07T02:45:01.022Z,5.57
2023-03-07T02:46:23.079Z,5.70
2023-03-07T02:47:45.836Z,5.57
2023-03-07T02:49:08.075Z,5.59
2023-03-07T02:50:29.571Z,5.82
2023-03-07T02:51:51.145Z,5.72
2023-03-07T02:53:12.787Z,5.78
2023-03-07T02:54:34.974Z,5.78
2023-03-07T02:55:57.668Z,5.44
2023-03-07T02:57:19.562Z,7.09
2023-03-07T02:58:41.668Z,6.56
2023-03-07T03:00:04.878Z,6.91
2023-03-07T03:01:26.818Z,6.98
2023-03-07T03:02:48.580Z,7.85
2023-03-07T03:04:10.641Z,8.99
2023-03-07T03:05:32.147Z,8.53
2023-03-07T03:06:55.146Z,8.95
2023-03-07T03:08:16.536Z,8.21
2023-03-07T03:09:38.555Z,7.71
2023-03-07T03:11:01.807Z,8.51
2023-03-07T03:12:23.703Z,9.06
2023-03-07T03:13:46.030Z,8.14
2023-03-07T03:15:09.107Z,14.67
2023-03-07T03:16:31.740Z,8.46
2023-03-07T03:17:53.591Z,9.08
2023-03-07T03:19:15.125Z,8.83
2023-03-07T03:20:38.950Z,9.08
2023-03-07T03:22:00.634Z,7.84
2023-03-07T03:23:22.657Z,8.31
2023-03-07T03:24:45.105Z,8.36
2023-03-07T03:26:09.078Z,9.11
2023-03-07T03:27:33.007Z,9.57
2023-03-07T03:28:54.811Z,7.83
2023-03-07T03:30:17.236Z,7.94
2023-03-07T03:31:39.209Z,7.26
2023-03-07T03:33:01.079Z,9.15
2023-03-07T03:34:22.683Z,10.21
2023-03-07T03:35:44.269Z,13.98
2023-03-07T03:37:06.032Z,15.25
2023-03-07T03:38:27.970Z,9.91
2023-03-07T03:39:49.066Z,7.86
2023-03-07T03:41:12.375Z,7.22
2023-03-07T03:42:34.001Z,11.53
2023-03-07T03:43:55.791Z,9.88
2023-03-07T03:45:17.548Z,12.84
2023-03-07T03:46:40.068Z,10.24
2023-03-07T03:48:01.860Z,6.83
2023-03-07T03:49:23.906Z,8.57
2023-03-07T03:50:45.975Z,8.36
2023-03-07T03:52:10.643Z,7.46
2023-03-07T03:53:33.333Z,9.79
2023-03-07T03:54:55.170Z,7.42
2023-03-07T03:56:18.678Z,7.72
2023-03-07T03:57:40.458Z,8.74
2023-03-07T03:59:03.004Z,9.10
2023-03-07T04:00:24.930Z,6.86
2023-03-07T04:01:46.296Z,6.72
2023-03-07T04:03:08.765Z,9.59
2023-03-07T04:04:30.767Z,15.04
2023-03-07T04:05:53.039Z,13.51
2023-03-07T04:07:15.101Z,15.77
2023-03-07T04:08:36.832Z,11.19
2023-03-07T04:09:58.782Z,13.73
2023-03-07T04:11:21.425Z,11.62
2023-03-07T04:12:43.252Z,9.27
2023-03-07T04:14:05.263Z,12.87
2023-03-07T04:15:26.813Z,18.27
2023-03-07T04:16:49.413Z,12.61
2023-03-07T04:18:11.442Z,11.97
2023-03-07T04:19:33.021Z,11.96
2023-03-07T04:20:54.972Z,12.57
2023-03-07T04:22:17.419Z,12.62
2023-03-07T04:23:39.650Z,10.23
2023-03-07T04:25:01.200Z,9.63
2023-03-07T04:26:23.078Z,10.27
2023-03-07T04:29:03.271Z,7.79
2023-03-07T04:30:25.647Z,8.86
2023-03-07T04:31:49.505Z,8.80
2023-03-07T04:33:11.805Z,9.53
2023-03-07T04:34:34.713Z,7.81
2023-03-07T04:36:00.736Z,10.43
2023-03-07T04:37:23.422Z,10.84
2023-03-07T04:38:46.860Z,11.18
2023-03-07T04:40:09.670Z,12.86
2023-03-07T04:41:32.463Z,12.86
2023-03-07T04:42:56.450Z,11.31
2023-03-07T04:44:18.757Z,10.18
2023-03-07T04:45:41.196Z,10.94
2023-03-07T04:47:03.674Z,12.27
2023-03-07T04:48:35.787Z,9.42
2023-03-07T04:50:00.455Z,10.19
2023-03-07T04:51:25.643Z,8.26
2023-03-07T04:52:47.814Z,12.06
2023-03-07T04:54:10.281Z,11.27
2023-03-07T04:55:31.641Z,10.05
2023-03-07T04:56:54.286Z,8.02
2023-03-07T04:58:16.179Z,9.54
2023-03-07T04:59:38.590Z,10.07
2023-03-07T05:02:29.566Z,9.54
2023-03-07T05:03:51.640Z,10.46
2023-03-07T05:05:15.508Z,9.41
2023-03-07T05:06:39.228Z,7.39
2023-03-07T05:08:02.790Z,6.72
2023-03-07T05:09:29.068Z,6.59
2023-03-07T05:10:51.069Z,6.34
2023-03-07T05:12:21.941Z,8.48
2023-03-07T05:13:45.123Z,7.88
2023-03-07T05:15:09.343Z,8.54
2023-03-07T05:16:31.986Z,12.24
2023-03-07T05:17:55.377Z,9.70
2023-03-07T05:19:18.209Z,11.40
2023-03-07T05:22:05.328Z,10.36
2023-03-07T05:23:27.508Z,15.96
2023-03-07T05:24:53.647Z,15.38
2023-03-07T05:26:16.278Z,14.94
2023-03-07T05:27:39.140Z,11.12
2023-03-07T05:29:16.969Z,14.53
2023-03-07T05:30:42.671Z,6.99
2023-03-07T05:32:13.366Z,9.43
2023-03-07T05:33:35.685Z,10.72
2023-03-07T05:34:59.713Z,11.38
2023-03-07T05:36:26.417Z,10.81
2023-03-07T05:37:49.818Z,9.33
2023-03-07T05:39:11.644Z,7.94
2023-03-07T05:40:36.229Z,5.56
2023-03-07T05:42:04.761Z,6.78
2023-03-07T05:43:36.696Z,6.96
2023-03-07T05:45:04.693Z,7.13
2023-03-07T05:46:27.592Z,7.25
2023-03-07T05:49:52.786Z,6.71
2023-03-07T05:51:15.216Z,7.31
2023-03-07T05:52:41.206Z,7.52
2023-03-07T05:54:06.404Z,7.06
2023-03-07T05:55:39.931Z,6.97
2023-03-07T06:00:12.353Z,7.44
2023-03-07T06:01:37.971Z,7.96
2023-03-07T06:12:21.970Z,8.51
2023-03-07T06:13:44.913Z,5.69
2023-03-07T06:15:15.127Z,7.74
2023-03-07T06:16:38.929Z,6.48
2023-03-07T06:18:16.482Z,6.98
2023-03-07T06:19:55.710Z,6.74
2023-03-07T06:21:35.052Z,6.94
2023-03-07T06:23:05.207Z,7.19
2023-03-07T06:24:27.604Z,8.14
2023-03-07T06:25:49.624Z,7.39
2023-03-07T06:27:12.409Z,7.67
2023-03-07T06:28:34.489Z,7.93
2023-03-07T06:30:03.967Z,7.93
2023-03-07T06:31:49.357Z,8.39
2023-03-07T06:33:13.092Z,8.51
2023-03-07T06:42:09.395Z,9.24
2023-03-07T06:43:38.967Z,8.97
2023-03-07T06:48:31.722Z,9.88
2023-03-07T06:49:56.878Z,11.91
2023-03-07T06:51:21.301Z,10.19
2023-03-07T06:52:52.628Z,9.91
2023-03-07T06:55:34.518Z,8.46
2023-03-07T06:56:56.799Z,9.61
2023-03-07T06:58:20.169Z,9.36
2023-03-07T06:59:42.426Z,9.86
2023-03-07T07:01:08.357Z,10.00
2023-03-07T07:02:31.176Z,8.99
2023-03-07T07:03:58.879Z,9.49
2023-03-07T07:05:24.450Z,9.79
2023-03-07T07:06:48.215Z,10.89
2023-03-07T07:08:13.709Z,9.94
2023-03-07T07:09:36.118Z,10.25
2023-03-07T07:10:59.661Z,10.23
2023-03-07T07:12:21.628Z,9.53
2023-03-07T07:13:45.868Z,9.44
2023-03-07T07:15:09.995Z,9.50
2023-03-07T07:16:31.729Z,9.54
2023-03-07T07:17:55.620Z,9.87
2023-03-07T07:19:21.736Z,9.95
2023-03-07T07:20:44.327Z,9.88
2023-03-07T07:22:06.859Z,9.05
2023-03-07T07:23:30.545Z,10.31
2023-03-07T07:24:53.036Z,10.01
2023-03-07T07:27:37.745Z,9.81
2023-03-07T07:29:01.094Z,10.07
2023-03-07T07:30:24.226Z,9.59
2023-03-07T07:31:46.604Z,10.03
2023-03-07T07:33:09.098Z,10.64
2023-03-07T07:34:32.036Z,10.47
2023-03-07T07:37:25.063Z,10.20
2023-03-07T07:38:49.468Z,10.01
2023-03-07T07:41:58.094Z,9.06
2023-03-07T07:43:23.747Z,9.74
2023-03-07T07:44:46.653Z,9.95
2023-03-07T07:46:08.120Z,9.48
2023-03-07T07:47:33.665Z,8.68
2023-03-07T07:48:58.451Z,9.38
2023-03-07T07:50:21.560Z,9.12
2023-03-07T07:53:28.597Z,9.77
2023-03-07T07:54:51.009Z,10.88
2023-03-07T07:56:18.022Z,19.80
2023-03-07T07:57:40.958Z,11.22
2023-03-07T08:00:45.964Z,10.26
2023-03-07T08:02:14.052Z,9.71
2023-03-07T08:03:36.128Z,10.02
2023-03-07T08:04:59.830Z,10.13
2023-03-07T08:06:26.310Z,10.01
2023-03-07T08:07:51.364Z,9.39
2023-03-07T08:09:14.825Z,9.79
2023-03-07T08:10:44.713Z,9.78
2023-03-07T08:12:13.020Z,9.58
2023-03-07T08:13:38.431Z,9.96
2023-03-07T08:15:01.546Z,9.34
2023-03-07T08:16:23.521Z,10.38
2023-03-07T08:17:48.702Z,10.62
2023-03-07T08:22:36.233Z,10.14
2023-03-07T08:23:58.516Z,10.41
2023-03-07T08:25:23.800Z,9.12
2023-03-07T08:26:45.263Z,10.17
2023-03-07T08:28:09.715Z,9.73
2023-03-07T08:29:33.403Z,9.92
2023-03-07T08:30:57.050Z,9.92
2023-03-07T08:34:00.865Z,9.88
2023-03-07T08:35:23.419Z,10.61
2023-03-07T08:36:53.796Z,9.99
2023-03-07T08:38:16.001Z,10.20
2023-03-07T08:39:40.348Z,10.22
2023-03-07T08:41:05.533Z,9.48
2023-03-07T08:42:29.475Z,9.56
2023-03-07T08:43:51.358Z,9.90
2023-03-07T08:45:15.782Z,9.47
2023-03-07T08:46:42.061Z,9.71
2023-03-07T08:48:04.778Z,9.38
2023-03-07T08:49:26.845Z,7.89
2023-03-07T08:50:54.657Z,7.39
2023-03-07T08:52:22.703Z,9.03
2023-03-07T08:53:48.561Z,9.25
2023-03-07T08:55:12.498Z,9.17
2023-03-07T08:56:35.593Z,8.84
2023-03-07T08:57:59.629Z,9.51
2023-03-07T09:01:17.198Z,9.29
2023-03-07T09:02:50.491Z,9.12
2023-03-07T09:04:25.702Z,9.61
2023-03-07T09:05:51.753Z,9.71
2023-03-07T09:07:19.169Z,10.17
2023-03-07T09:08:43.575Z,9.94
2023-03-07T09:10:13.299Z,9.49
2023-03-07T09:15:19.673Z,9.78
2023-03-07T09:16:57.983Z,9.10
2023-03-07T09:18:22.227Z,9.32
2023-03-07T09:25:00.927Z,9.01
2023-03-07T09:40:21.529Z,8.92
2023-03-07T16:06:46.975Z,10.01
2023-03-07T16:08:14.391Z,12.64
2023-03-07T16:09:39.755Z,13.97
2023-03-07T16:11:12.616Z,13.66
2023-03-07T16:12:34.699Z,13.77
2023-03-07T16:27:02.843Z,16.29
2023-03-07T16:54:26.040Z,14.41
2023-03-07T17:04:49.933Z,12.56
2023-03-07T17:20:53.078Z,12.57
2023-03-07T17:34:30.796Z,14.72
2023-03-07T17:36:11.280Z,15.89
2023-03-07T17:41:07.276Z,14.27
2023-03-07T17:42:34.675Z,14.22
2023-03-07T17:45:51.331Z,13.19
2023-03-07T17:47:22.177Z,14.96
2023-03-07T17:49:06.249Z,14.81
2023-03-07T17:54:26.354Z,15.15
2023-03-07T17:57:42.575Z,14.79
2023-03-07T18:01:03.611Z,14.07
2023-03-07T18:04:15.529Z,14.44
2023-03-07T18:07:49.425Z,13.91
2023-03-07T18:09:13.054Z,14.09
2023-03-07T18:10:38.345Z,15.50
2023-03-07T18:12:00.051Z,15.70
2023-03-07T18:13:28.396Z,15.22
2023-03-07T18:14:50.656Z,15.62
2023-03-07T18:16:14.101Z,15.20
2023-03-07T18:17:47.471Z,16.49
2023-03-07T18:19:17.140Z,13.98
2023-03-07T18:20:49.027Z,14.04
2023-03-07T18:22:20.996Z,14.18
2023-03-07T18:23:46.448Z,11.27
2023-03-07T18:25:20.408Z,14.06
2023-03-07T18:26:52.242Z,27.97
2023-03-07T18:29:46.860Z,14.21
2023-03-07T18:32:56.634Z,13.25
2023-03-07T18:36:32.488Z,14.24
2023-03-07T18:37:56.356Z,14.12
2023-03-07T18:39:20.056Z,14.77
2023-03-07T18:42:27.078Z,14.07
2023-03-07T18:43:49.736Z,14.18
2023-03-07T18:45:16.131Z,13.59
2023-03-07T18:46:37.987Z,15.09
2023-03-07T18:47:59.989Z,17.39
2023-03-07T18:53:05.636Z,13.12
2023-03-07T18:54:28.575Z,15.18
2023-03-07T18:55:52.200Z,12.84
2023-03-07T18:57:14.461Z,13.63
2023-03-07T18:58:35.832Z,14.14
2023-03-07T18:59:57.725Z,13.47
2023-03-07T19:01:35.073Z,14.49
2023-03-07T19:02:59.775Z,13.88
2023-03-07T19:04:28.306Z,13.84
2023-03-07T19:07:43.224Z,15.22
2023-03-07T19:10:26.229Z,11.39
2023-03-07T19:11:54.388Z,18.41
2023-03-07T19:13:24.475Z,19.32
2023-03-07T19:16:37.435Z,21.96
2023-03-07T19:18:10.620Z,17.81
2023-03-07T19:19:34.800Z,15.90
2023-03-07T19:23:00.698Z,17.05
2023-03-07T19:24:24.251Z,17.24
2023-03-07T19:25:46.446Z,18.58
2023-03-07T19:27:17.130Z,16.88
2023-03-07T19:28:41.188Z,16.81
2023-03-07T19:30:03.614Z,16.89
2023-03-07T19:31:29.718Z,20.03
2023-03-07T19:33:11.504Z,17.89
2023-03-07T19:39:24.200Z,17.22
2023-03-07T19:40:57.168Z,18.61
2023-03-07T19:44:05.332Z,18.58
2023-03-07T19:45:34.420Z,17.13
2023-03-07T19:46:58.818Z,17.51
2023-03-07T19:48:23.848Z,17.45
2023-03-07T19:50:08.328Z,19.42
2023-03-07T19:51:30.301Z,18.97
2023-03-07T19:54:51.464Z,20.79
2023-03-07T19:56:20.814Z,20.88
2023-03-07T19:57:47.472Z,22.27
2023-03-07T19:59:16.371Z,21.47
2023-03-07T20:00:39.732Z,20.74
2023-03-07T20:02:03.384Z,20.08
2023-03-07T20:03:25.821Z,18.62
2023-03-07T20:04:50.467Z,20.68
2023-03-07T20:09:25.777Z,17.66
2023-03-07T20:11:07.292Z,20.08
2023-03-07T20:12:24.880Z,19.02
2023-03-07T20:13:48.717Z,19.09
2023-03-07T20:15:14.413Z,20.43
2023-03-07T20:18:27.125Z,20.21
2023-03-07T20:20:08.220Z,20.09
2023-03-07T20:21:40.043Z,19.69
2023-03-07T20:23:07.248Z,21.69
2023-03-07T20:24:28.790Z,17.28
2023-03-07T20:25:53.742Z,18.07
2023-03-07T20:27:15.598Z,18.79
2023-03-07T20:28:37.776Z,20.37
2023-03-07T20:31:43.858Z,21.98
2023-03-07T20:33:05.773Z,21.38
2023-03-07T20:34:27.572Z,17.36
2023-03-07T20:36:04.972Z,23.96
2023-03-07T20:37:29.502Z,20.97
2023-03-07T20:40:53.538Z,26.21
2023-03-07T20:42:16.921Z,19.28
2023-03-07T20:45:34.452Z,19.68
2023-03-07T20:46:57.763Z,18.42
2023-03-07T20:48:20.229Z,18.55
2023-03-07T20:49:42.420Z,18.44
2023-03-07T20:51:27.335Z,12.77
2023-03-07T20:52:51.102Z,15.04
2023-03-07T20:54:25.868Z,15.55
2023-03-07T20:55:49.730Z,14.61
2023-03-07T20:57:17.262Z,14.47
2023-03-07T21:00:34.563Z,14.96
2023-03-07T21:02:04.728Z,18.66
2023-03-07T21:03:27.788Z,16.70
2023-03-07T21:04:54.574Z,16.35
2023-03-07T21:06:18.401Z,17.76
2023-03-07T21:07:42.161Z,17.28
2023-03-07T21:09:04.996Z,19.98
2023-03-07T21:10:32.304Z,19.62
2023-03-07T21:11:57.930Z,19.09
2023-03-07T21:13:23.007Z,19.37
2023-03-07T21:14:45.165Z,16.68
2023-03-07T21:16:19.819Z,18.34
2023-03-07T21:17:43.482Z,19.43
2023-03-07T21:19:07.145Z,19.61
2023-03-07T21:20:30.066Z,21.86
2023-03-07T21:21:51.231Z,19.79
2023-03-07T21:23:14.994Z,20.40
2023-03-07T21:24:37.410Z,19.38
2023-03-07T21:26:12.950Z,18.07
2023-03-07T21:27:36.838Z,17.19
2023-03-07T21:28:59.295Z,18.76
2023-03-07T21:30:24.511Z,19.83
2023-03-07T21:31:46.234Z,21.99
2023-03-07T21:33:14.746Z,24.18
2023-03-07T21:34:38.118Z,23.00
2023-03-07T21:36:02.898Z,26.66
2023-03-07T21:37:28.286Z,26.93
2023-03-07T21:38:50.912Z,26.72
2023-03-07T21:40:16.098Z,26.29
2023-03-07T21:41:39.406Z,25.25
2023-03-07T21:43:05.572Z,28.28
2023-03-07T21:44:29.112Z,21.24
2023-03-07T21:45:51.678Z,26.72
2023-03-07T21:48:38.223Z,29.68
2023-03-07T21:50:01.129Z,63.24
2023-03-07T21:51:23.751Z,39.49
2023-03-07T21:52:45.937Z,31.27
2023-03-07T21:54:08.130Z,32.07
2023-03-07T21:55:30.873Z,34.30
2023-03-07T21:56:54.673Z,32.68
2023-03-07T21:58:16.591Z,30.50
2023-03-07T21:59:40.524Z,30.43
2023-03-07T22:01:14.659Z,28.53
2023-03-07T22:02:36.943Z,26.79
2023-03-07T22:04:00.318Z,27.45
2023-03-07T22:05:39.468Z,27.19
2023-03-07T22:07:02.088Z,29.91
2023-03-07T22:08:23.619Z,41.64
2023-03-07T22:09:46.782Z,34.21
2023-03-07T22:11:09.960Z,22.81
2023-03-07T22:12:31.949Z,22.38
2023-03-07T22:13:54.498Z,44.53
2023-03-07T22:15:16.680Z,20.49
2023-03-07T22:16:38.510Z,25.23
2023-03-07T22:18:00.405Z,20.17
2023-03-07T22:19:23.011Z,17.13
2023-03-07T22:20:47.064Z,14.42
2023-03-07T22:22:09.145Z,14.85
2023-03-07T22:23:31.338Z,14.79
2023-03-07T22:24:53.161Z,17.36
2023-03-07T22:26:15.751Z,18.57
2023-03-07T22:27:37.896Z,18.03
2023-03-07T22:29:03.329Z,15.63
2023-03-07T22:30:25.237Z,18.66
2023-03-07T22:31:47.229Z,32.06
2023-03-07T22:33:08.788Z,16.96
2023-03-07T22:34:30.885Z,43.90
2023-03-07T22:35:59.822Z,16.35
2023-03-07T22:37:22.221Z,18.87
2023-03-07T22:40:07.942Z,15.66
2023-03-07T22:41:29.530Z,14.88
2023-03-07T22:42:51.226Z,13.78
2023-03-07T22:44:14.439Z,15.42
2023-03-07T22:47:00.391Z,14.01
2023-03-07T22:48:23.044Z,14.53
2023-03-07T22:49:44.695Z,15.23
2023-03-07T22:51:12.869Z,14.26
2023-03-07T22:52:34.722Z,15.14
2023-03-07T22:53:56.702Z,12.28
2023-03-07T22:55:18.999Z,15.07
2023-03-07T22:56:41.227Z,14.34
2023-03-07T22:58:04.699Z,15.27
2023-03-07T22:59:30.797Z,14.44
2023-03-07T23:00:56.162Z,15.27
2023-03-07T23:02:19.933Z,15.08
2023-03-07T23:03:42.822Z,14.25
2023-03-07T23:05:04.868Z,16.66
2023-03-07T23:06:28.579Z,11.93
2023-03-07T23:07:50.420Z,17.28
2023-03-07T23:09:12.304Z,15.92
2023-03-07T23:10:35.745Z,12.91
2023-03-07T23:11:57.775Z,16.22
2023-03-07T23:13:21.149Z,13.47
2023-03-07T23:14:43.238Z,15.69
2023-03-07T23:16:11.180Z,15.36
2023-03-07T23:17:42.064Z,16.22
2023-03-07T23:19:07.040Z,15.27
2023-03-07T23:20:28.440Z,15.27
2023-03-07T23:21:53.028Z,15.08
2023-03-07T23:23:15.350Z,14.49
2023-03-07T23:24:37.700Z,14.87
2023-03-07T23:26:00.090Z,14.92
2023-03-07T23:28:50.621Z,14.52
2023-03-07T23:30:13.258Z,14.94
2023-03-07T23:31:39.988Z,15.32
2023-03-07T23:33:01.732Z,15.14
2023-03-07T23:34:25.195Z,11.94
2023-03-07T23:35:48.119Z,14.87
2023-03-07T23:37:10.951Z,15.08
2023-03-07T23:38:36.327Z,15.49
2023-03-07T23:39:58.082Z,14.68
2023-03-07T23:41:20.894Z,14.86
2023-03-07T23:42:45.362Z,15.01
2023-03-07T23:44:07.676Z,14.88
2023-03-07T23:45:29.034Z,15.81
2023-03-07T23:46:51.693Z,16.13
2023-03-07T23:48:13.823Z,16.48
2023-03-07T23:49:36.645Z,17.50
2023-03-07T23:50:58.825Z,17.34
2023-03-07T23:52:22.963Z,17.09
2023-03-07T23:53:46.533Z,18.28
2023-03-07T23:55:12.575Z,18.83
2023-03-07T23:56:35.706Z,18.15
2023-03-07T23:59:18.523Z,15.68
